KAWM

West Memphis Municipal Airport

West Memphis, Arkansas, USA
METAR KAWM 181405Z AUTO 21005KT 10SM BKN010 24/23 A3002 RMK AO2 CIG 007V014 T02390228
Observed Flight Rules
Aug-18 @ 14:05 UTC (47 minutes ago) Marginal Visual Flight Rules
Wind Visibility Clouds
210° at 5 knots 10 miles
  • Broken at 1,000' AGL
Temperatures Readings
Current 24°C / 75°F
Dewpoint 23°C / 73°F
Humidity 94%
Altimeter 30.02" Hg
Pressure 1017 hPa
Elevation 65
METAR KAWM 181405Z AUTO 21005KT 10SM BKN010 24/23 A3002 RMK AO2 CIG 007V014 T02390228
Observed Flight Rules
Aug-18 @ 14:05 UTC
(47 minutes ago)
MVFR
Wind Visibility
210° at 5 knots 10 miles
Clouds
  • Broken at 1,000' AGL
Temperature Dewpoint
24°C / 75°F 23°C / 73°F
Humidity Altimeter Pressure
94% 30.02" Hg 1017 hPa